createdAt,value
2018-09-11T00:00:36.362Z,1016.3
2018-09-11T00:01:37.767Z,1016.3
2018-09-11T00:02:39.473Z,1016.4
2018-09-11T00:03:40.876Z,1016.5
2018-09-11T00:04:42.349Z,1016.4
2018-09-11T00:05:43.755Z,1016.5
2018-09-11T00:06:45.419Z,1016.4
2018-09-11T00:07:46.826Z,1016.4
2018-09-11T00:08:48.500Z,1016.5
2018-09-11T00:09:50.334Z,1016.4
2018-09-11T00:10:51.994Z,1016.4
2018-09-11T00:11:53.397Z,1016.4
2018-09-11T00:12:55.084Z,1016.4
2018-09-11T00:13:56.482Z,1016.3
2018-09-11T00:14:58.190Z,1016.3
2018-09-11T00:15:59.574Z,1016.3
2018-09-11T00:17:01.051Z,1016.2
2018-09-11T00:18:02.704Z,1016.2
2018-09-11T00:19:04.106Z,1016.2
2018-09-11T00:20:05.507Z,1016.3
2018-09-11T00:21:07.016Z,1016.3
2018-09-11T00:22:08.417Z,1016.3
2018-09-11T00:23:10.101Z,1016.2
2018-09-11T00:24:11.535Z,1016.3
2018-09-11T00:25:13.185Z,1016.2
2018-09-11T00:26:14.588Z,1016.3
2018-09-11T00:27:16.652Z,1016.3
2018-09-11T00:28:18.056Z,1016.2
2018-09-11T00:29:19.564Z,1016.2
2018-09-11T00:30:20.972Z,1016.2
2018-09-11T00:31:22.648Z,1016.2
2018-09-11T00:32:24.059Z,1016.2
2018-09-11T00:33:25.734Z,1016.2
2018-09-11T00:34:27.135Z,1016.2
2018-09-11T00:35:28.822Z,1016.2
2018-09-11T00:36:30.248Z,1016.3
2018-09-11T00:37:31.907Z,1016.2
2018-09-11T00:38:33.314Z,1016.1
2018-09-11T00:39:34.991Z,1016.2
2018-09-11T00:40:36.401Z,1016.1
2018-09-11T00:41:38.076Z,1016.1
2018-09-11T00:42:39.483Z,1016.1
2018-09-11T00:43:41.183Z,1016.1
2018-09-11T00:44:42.589Z,1016.1
2018-09-11T00:45:44.248Z,1016.1
2018-09-11T00:46:45.662Z,1016.1
2018-09-11T00:47:47.335Z,1016.1
2018-09-11T00:48:48.758Z,1016.1
2018-09-11T00:49:50.420Z,1016.1
2018-09-11T00:50:52.222Z,1016.0
2018-09-11T00:51:53.743Z,1016.1
2018-09-11T00:52:55.113Z,1016.1
2018-09-11T00:53:56.823Z,1016.1
2018-09-11T00:54:58.224Z,1016.0
2018-09-11T00:55:59.881Z,1016.1
2018-09-11T00:57:01.283Z,1016.0
2018-09-11T00:58:02.693Z,1016.0
2018-09-11T00:59:04.202Z,1016.0
2018-09-11T01:00:05.606Z,1016.0
2018-09-11T01:01:07.012Z,1016.0
2018-09-11T01:02:08.525Z,1016.0
2018-09-11T01:03:09.927Z,1015.9
2018-09-11T01:04:11.641Z,1015.9
2018-09-11T01:05:13.012Z,1015.9
2018-09-11T01:06:14.694Z,1015.9
2018-09-11T01:07:16.100Z,1015.9
2018-09-11T01:08:17.504Z,1015.9
2018-09-11T01:09:19.017Z,1015.9
2018-09-11T01:10:20.474Z,1016.0
2018-09-11T01:11:22.211Z,1016.0
2018-09-11T01:12:23.746Z,1016.0
2018-09-11T01:13:25.179Z,1016.0
2018-09-11T01:14:26.832Z,1016.0
2018-09-11T01:15:28.281Z,1016.0
2018-09-11T01:16:29.917Z,1016.0
2018-09-11T01:17:31.317Z,1016.0
2018-09-11T01:18:33.003Z,1015.9
2018-09-11T01:19:34.784Z,1016.0
2018-09-11T01:20:36.707Z,1016.0
2018-09-11T01:21:38.117Z,1016.0
2018-09-11T01:22:39.789Z,1016.0
2018-09-11T01:23:41.191Z,1015.9
2018-09-11T01:24:42.876Z,1015.9
2018-09-11T01:25:44.323Z,1015.9
2018-09-11T01:26:45.961Z,1015.9
2018-09-11T01:27:47.389Z,1015.9
2018-09-11T01:28:49.252Z,1016.0
2018-09-11T01:29:50.653Z,1015.9
2018-09-11T01:30:52.339Z,1016.0
2018-09-11T01:31:53.743Z,1015.9
2018-09-11T01:32:55.145Z,1015.9
2018-09-11T01:33:56.658Z,1015.9
2018-09-11T01:34:58.061Z,1015.9
2018-09-11T01:35:59.469Z,1015.9
2018-09-11T01:37:00.980Z,1015.9
2018-09-11T01:38:02.383Z,1015.9
2018-09-11T01:39:03.784Z,1015.9
2018-09-11T01:40:05.302Z,1015.9
2018-09-11T01:41:06.710Z,1015.9
2018-09-11T01:42:08.118Z,1015.9
2018-09-11T01:43:09.623Z,1015.9
2018-09-11T01:44:11.023Z,1015.8
2018-09-11T01:45:12.732Z,1015.9
2018-09-11T01:46:14.136Z,1015.9
2018-09-11T01:47:15.847Z,1015.9
2018-09-11T01:48:17.259Z,1015.9
2018-09-11T01:49:18.880Z,1015.9
2018-09-11T01:50:20.281Z,1015.9
2018-09-11T01:51:21.967Z,1016.0
2018-09-11T01:52:23.399Z,1016.0
2018-09-11T01:53:24.795Z,1016.0
2018-09-11T01:54:26.496Z,1016.0
2018-09-11T01:55:27.921Z,1015.9
2018-09-11T01:56:29.329Z,1016.0
2018-09-11T01:57:31.020Z,1016.0
2018-09-11T01:58:32.422Z,1016.0
2018-09-11T01:59:33.855Z,1016.0
2018-09-11T02:00:35.343Z,1016.0
2018-09-11T02:01:36.753Z,1015.9
2018-09-11T02:02:38.156Z,1016.0
2018-09-11T02:03:39.667Z,1016.0
2018-09-11T02:04:41.069Z,1016.0
2018-09-11T02:05:42.484Z,1015.9
2018-09-11T02:06:44.017Z,1015.9
2018-09-11T02:07:45.419Z,1015.8
2018-09-11T02:08:46.855Z,1015.9
2018-09-11T02:09:48.513Z,1015.9
2018-09-11T02:10:49.914Z,1015.9
2018-09-11T02:11:51.319Z,1015.9
2018-09-11T02:12:52.832Z,1015.9
2018-09-11T02:13:54.266Z,1015.9
2018-09-11T02:14:55.917Z,1015.9
2018-09-11T02:15:57.320Z,1015.9
2018-09-11T02:16:58.998Z,1015.8
2018-09-11T02:18:00.410Z,1015.8
2018-09-11T02:19:02.091Z,1015.8
2018-09-11T02:20:03.494Z,1015.7
2018-09-11T02:21:05.582Z,1015.8
2018-09-11T02:22:06.987Z,1015.8
2018-09-11T02:23:08.670Z,1015.8
2018-09-11T02:24:10.073Z,1015.7
2018-09-11T02:25:11.761Z,1015.7
2018-09-11T02:26:13.157Z,1015.7
2018-09-11T02:27:14.840Z,1015.7
2018-09-11T02:28:16.243Z,1015.7
2018-09-11T02:29:17.649Z,1015.7
2018-09-11T02:30:19.162Z,1015.7
2018-09-11T02:31:20.574Z,1015.7
2018-09-11T02:32:21.975Z,1015.7
2018-09-11T02:33:23.508Z,1015.7
2018-09-11T02:34:24.908Z,1015.8
2018-09-11T02:35:26.569Z,1015.8
2018-09-11T02:36:27.976Z,1015.8
2018-09-11T02:37:29.383Z,1015.8
2018-09-11T02:38:30.892Z,1015.8
2018-09-11T02:39:32.296Z,1015.9
2018-09-11T02:40:33.717Z,1015.9
2018-09-11T02:41:35.588Z,1015.9
2018-09-11T02:42:36.992Z,1016.0
2018-09-11T02:43:38.414Z,1016.0
2018-09-11T02:44:39.987Z,1016.0
2018-09-11T02:45:41.378Z,1016.0
2018-09-11T02:46:43.029Z,1016.0
2018-09-11T02:47:44.470Z,1016.0
2018-09-11T02:48:45.875Z,1016.0
2018-09-11T02:49:47.548Z,1016.0
2018-09-11T02:50:48.955Z,1016.0
2018-09-11T02:51:50.362Z,1016.0
2018-09-11T02:52:51.890Z,1016.0
2018-09-11T02:53:53.280Z,1016.0
2018-09-11T02:54:54.683Z,1016.0
2018-09-11T02:55:56.195Z,1016.0
2018-09-11T02:56:57.974Z,1016.0
2018-09-11T02:57:59.365Z,1016.0
2018-09-11T02:59:00.926Z,1015.9
2018-09-11T03:00:02.384Z,1015.9
2018-09-11T03:01:04.011Z,1016.0
2018-09-11T03:02:05.439Z,1016.0
2018-09-11T03:03:06.835Z,1016.0
2018-09-11T03:04:08.333Z,1016.0
2018-09-11T03:05:09.734Z,1016.0
2018-09-11T03:06:11.138Z,1016.0
2018-09-11T03:07:12.663Z,1016.0
2018-09-11T03:08:14.070Z,1016.0
2018-09-11T03:09:15.469Z,1016.0
2018-09-11T03:10:16.978Z,1015.9
2018-09-11T03:11:18.378Z,1016.0
2018-09-11T03:12:20.062Z,1016.0
2018-09-11T03:13:21.464Z,1016.0
2018-09-11T03:14:22.892Z,1015.9
2018-09-11T03:15:24.382Z,1016.0
2018-09-11T03:16:25.820Z,1015.9
2018-09-11T03:17:27.237Z,1016.0
2018-09-11T03:18:29.290Z,1015.9
2018-09-11T03:19:30.697Z,1016.0
2018-09-11T03:20:32.198Z,1015.9
2018-09-11T03:21:33.637Z,1016.0
2018-09-11T03:22:35.287Z,1016.0
2018-09-11T03:23:36.691Z,1016.0
2018-09-11T03:24:38.092Z,1016.0
2018-09-11T03:25:39.606Z,1016.0
2018-09-11T03:26:41.009Z,1015.9
2018-09-11T03:27:42.410Z,1015.9
2018-09-11T03:28:43.929Z,1015.9
2018-09-11T03:29:45.337Z,1015.9
2018-09-11T03:30:47.013Z,1016.0
2018-09-11T03:31:48.795Z,1016.0
2018-09-11T03:32:50.302Z,1016.0
2018-09-11T03:33:51.738Z,1015.9
2018-09-11T03:34:53.388Z,1016.0
2018-09-11T03:35:54.822Z,1016.0
2018-09-11T03:36:56.851Z,1016.0
2018-09-11T03:37:58.258Z,1016.0
2018-09-11T03:39:00.012Z,1016.0
2018-09-11T03:40:01.413Z,1016.1
2018-09-11T03:41:03.061Z,1016.1
2018-09-11T03:42:04.459Z,1016.2
2018-09-11T03:43:06.162Z,1016.1
2018-09-11T03:44:07.920Z,1016.1
2018-09-11T03:45:09.431Z,1016.1
2018-09-11T03:46:10.865Z,1016.1
2018-09-11T03:47:12.523Z,1016.1
2018-09-11T03:48:14.015Z,1016.1
2018-09-11T03:49:15.768Z,1016.1
2018-09-11T03:50:17.247Z,1016.0
2018-09-11T03:51:18.650Z,1016.0
2018-09-11T03:52:20.060Z,1015.9
2018-09-11T03:53:21.569Z,1015.9
2018-09-11T03:54:22.974Z,1015.9
2018-09-11T03:55:24.654Z,1015.9
2018-09-11T03:56:26.435Z,1016.0
2018-09-11T03:57:27.943Z,1015.9
2018-09-11T03:58:29.344Z,1015.9
2018-09-11T03:59:31.030Z,1016.0
2018-09-11T04:00:32.505Z,1016.0
2018-09-11T04:01:34.116Z,1016.0
2018-09-11T04:02:35.520Z,1015.9
2018-09-11T04:03:37.013Z,1015.9
2018-09-11T04:04:38.407Z,1016.0
2018-09-11T04:05:40.128Z,1016.0
2018-09-11T04:06:41.516Z,1016.0
2018-09-11T04:07:43.004Z,1015.9
2018-09-11T04:08:44.419Z,1016.0
2018-09-11T04:09:46.048Z,1016.1
2018-09-11T04:10:47.451Z,1016.1
2018-09-11T04:11:48.986Z,1016.0
2018-09-11T04:12:50.745Z,1016.0
2018-09-11T04:13:52.430Z,1016.0
2018-09-11T04:14:53.827Z,1016.0
2018-09-11T04:15:55.228Z,1016.0
2018-09-11T04:16:56.749Z,1016.0
2018-09-11T04:17:58.473Z,1016.0
2018-09-11T04:18:59.845Z,1016.0
2018-09-11T04:20:01.553Z,1016.0
2018-09-11T04:21:02.967Z,1016.0
2018-09-11T04:22:04.563Z,1015.9
2018-09-11T04:23:05.966Z,1015.9
2018-09-11T04:24:07.394Z,1015.9
2018-09-11T04:25:08.838Z,1015.9
2018-09-11T04:26:10.250Z,1015.9
2018-09-11T04:27:11.667Z,1015.9
2018-09-11T04:28:13.216Z,1015.9
2018-09-11T04:29:14.659Z,1016.0
2018-09-11T04:30:16.120Z,1016.0
2018-09-11T04:31:17.735Z,1016.0
2018-09-11T04:32:19.167Z,1016.1
2018-09-11T04:33:20.568Z,1016.0
2018-09-11T04:34:22.013Z,1016.0
2018-09-11T04:35:23.419Z,1016.0
2018-09-11T04:36:24.931Z,1016.0
2018-09-11T04:37:26.278Z,1016.0
2018-09-11T04:38:27.755Z,1016.0
2018-09-11T04:39:29.204Z,1015.9
2018-09-11T04:40:30.601Z,1016.0
2018-09-11T04:41:32.105Z,1016.0
2018-09-11T04:42:33.516Z,1016.0
2018-09-11T04:43:34.913Z,1016.0
2018-09-11T04:44:36.400Z,1015.9
2018-09-11T04:45:37.810Z,1016.0
2018-09-11T04:46:39.322Z,1016.0
2018-09-11T04:47:40.725Z,1016.0
2018-09-11T04:48:42.193Z,1016.0
2018-09-11T04:49:43.594Z,1015.9
2018-09-11T04:50:45.052Z,1015.9
2018-09-11T04:51:46.456Z,1015.9
2018-09-11T04:52:47.924Z,1015.9
2018-09-11T04:53:49.366Z,1015.9
2018-09-11T04:54:50.809Z,1015.9
2018-09-11T04:55:52.247Z,1015.8
2018-09-11T04:56:53.688Z,1015.8
2018-09-11T04:57:55.093Z,1015.8
2018-09-11T04:58:56.573Z,1015.8
2018-09-11T04:59:57.975Z,1015.8
2018-09-11T05:00:59.487Z,1015.8
2018-09-11T05:02:00.892Z,1015.8
2018-09-11T05:03:02.355Z,1015.8
2018-09-11T05:04:03.777Z,1015.8
2018-09-11T05:05:05.176Z,1015.8
2018-09-11T05:06:06.656Z,1015.8
2018-09-11T05:07:08.067Z,1015.9
2018-09-11T05:08:09.629Z,1015.8
2018-09-11T05:09:11.034Z,1015.8
2018-09-11T05:10:12.473Z,1015.8
2018-09-11T05:11:14.117Z,1015.8
2018-09-11T05:12:15.557Z,1015.8
2018-09-11T05:13:16.957Z,1015.8
2018-09-11T05:14:18.386Z,1015.8
2018-09-11T05:15:19.802Z,1015.8
2018-09-11T05:16:21.663Z,1015.8
2018-09-11T05:17:23.074Z,1015.8
2018-09-11T05:18:24.548Z,1015.8
2018-09-11T05:19:25.965Z,1015.8
2018-09-11T05:20:27.436Z,1015.8
2018-09-11T05:21:28.844Z,1015.7
2018-09-11T05:22:30.329Z,1015.7
2018-09-11T05:23:31.738Z,1015.7
2018-09-11T05:24:33.239Z,1015.7
2018-09-11T05:25:34.677Z,1015.8
2018-09-11T05:26:36.048Z,1015.8
2018-09-11T05:27:37.519Z,1015.8
2018-09-11T05:28:38.950Z,1015.8
2018-09-11T05:29:40.390Z,1015.9
2018-09-11T05:30:41.842Z,1015.8
2018-09-11T05:31:43.274Z,1015.9
2018-09-11T05:32:44.747Z,1015.8
2018-09-11T05:33:46.154Z,1015.8
2018-09-11T05:34:48.059Z,1015.8
2018-09-11T05:35:49.534Z,1015.8
2018-09-11T05:36:50.942Z,1015.8
2018-09-11T05:37:52.350Z,1015.8
2018-09-11T05:38:53.798Z,1015.9
2018-09-11T05:39:55.261Z,1015.9
2018-09-11T05:40:56.680Z,1015.9
2018-09-11T05:41:58.094Z,1015.9
2018-09-11T05:42:59.504Z,1015.9
2018-09-11T05:44:00.983Z,1016.0
2018-09-11T05:45:02.396Z,1016.0
2018-09-11T05:46:03.860Z,1015.9
2018-09-11T05:47:05.339Z,1016.0
2018-09-11T05:48:06.739Z,1016.0
2018-09-11T05:49:08.139Z,1016.0
2018-09-11T05:50:09.571Z,1015.9
2018-09-11T05:51:11.127Z,1016.0
2018-09-11T05:52:12.537Z,1016.0
2018-09-11T05:53:13.984Z,1016.0
2018-09-11T05:54:15.589Z,1016.1
2018-09-11T05:55:16.994Z,1016.1
2018-09-11T05:56:18.402Z,1016.1
2018-09-11T05:57:19.905Z,1016.0
2018-09-11T05:58:21.356Z,1016.0
2018-09-11T05:59:22.788Z,1016.0
2018-09-11T06:00:24.214Z,1016.0
2018-09-11T06:01:25.673Z,1016.0
2018-09-11T06:02:27.081Z,1016.0
2018-09-11T06:03:28.551Z,1016.0
2018-09-11T06:04:29.955Z,1016.0
2018-09-11T06:05:31.525Z,1016.0
2018-09-11T06:06:32.884Z,1016.0
2018-09-11T06:07:34.350Z,1016.0
2018-09-11T06:08:35.769Z,1016.0
2018-09-11T06:09:37.195Z,1016.0
2018-09-11T06:10:38.600Z,1016.0
2018-09-11T06:11:40.075Z,1016.0
2018-09-11T06:12:41.544Z,1015.9
2018-09-11T06:13:43.163Z,1016.0
2018-09-11T06:14:44.600Z,1016.0
2018-09-11T06:15:46.004Z,1016.0
2018-09-11T06:16:47.504Z,1016.0
2018-09-11T06:17:48.912Z,1016.0
2018-09-11T06:18:50.387Z,1016.0
2018-09-11T06:19:51.857Z,1016.0
2018-09-11T06:20:53.266Z,1016.0
2018-09-11T06:21:54.742Z,1015.9
2018-09-11T06:22:56.335Z,1015.9
2018-09-11T06:23:57.748Z,1015.9
2018-09-11T06:24:59.220Z,1015.9
2018-09-11T06:26:00.619Z,1015.9
2018-09-11T06:27:02.093Z,1015.9
2018-09-11T06:28:03.495Z,1015.9
2018-09-11T06:29:05.014Z,1015.9
2018-09-11T06:30:06.384Z,1015.9
2018-09-11T06:31:07.787Z,1015.9
2018-09-11T06:32:09.299Z,1015.9
2018-09-11T06:33:10.706Z,1015.9
2018-09-11T06:34:12.148Z,1015.9
2018-09-11T06:35:13.618Z,1015.9
2018-09-11T06:36:15.050Z,1016.0
2018-09-11T06:37:16.469Z,1016.0
2018-09-11T06:38:17.965Z,1016.0
2018-09-11T06:39:19.379Z,1016.0
2018-09-11T06:40:20.786Z,1016.0
2018-09-11T06:41:22.263Z,1015.9
2018-09-11T06:42:23.669Z,1016.0
2018-09-11T06:43:25.123Z,1016.0
2018-09-11T06:44:26.630Z,1016.0
2018-09-11T06:45:28.040Z,1016.1
2018-09-11T06:46:29.512Z,1016.1
2018-09-11T06:47:30.930Z,1016.1
2018-09-11T06:48:32.576Z,1016.2
2018-09-11T06:49:33.992Z,1016.2
2018-09-11T06:50:35.498Z,1016.2
2018-09-11T06:51:36.907Z,1016.2
2018-09-11T06:52:38.566Z,1016.2
2018-09-11T06:53:39.975Z,1016.2
2018-09-11T06:54:41.466Z,1016.3
2018-09-11T06:55:42.892Z,1016.3
2018-09-11T06:56:44.305Z,1016.2
2018-09-11T06:57:45.977Z,1016.2
2018-09-11T06:58:47.385Z,1016.2
2018-09-11T06:59:48.799Z,1016.3
2018-09-11T07:00:50.299Z,1016.2
2018-09-11T07:01:51.773Z,1016.2
2018-09-11T07:02:53.596Z,1016.1
2018-09-11T07:03:55.010Z,1016.1
2018-09-11T07:04:56.674Z,1016.1
2018-09-11T07:05:58.077Z,1016.1
2018-09-11T07:06:59.484Z,1016.1
2018-09-11T07:08:00.997Z,1016.2
2018-09-11T07:09:02.399Z,1016.1
2018-09-11T07:10:03.828Z,1016.1
2018-09-11T07:11:05.311Z,1016.2
2018-09-11T07:12:06.719Z,1016.2
2018-09-11T07:13:08.192Z,1016.2
2018-09-11T07:14:09.599Z,1016.3
2018-09-11T07:15:11.084Z,1016.3
2018-09-11T07:16:12.495Z,1016.2
2018-09-11T07:17:13.907Z,1016.2
2018-09-11T07:18:15.393Z,1016.2
2018-09-11T07:19:16.802Z,1016.3
2018-09-11T07:20:18.394Z,1016.3
2018-09-11T07:21:19.729Z,1016.3
2018-09-11T07:22:21.129Z,1016.3
2018-09-11T07:23:22.602Z,1016.4
2018-09-11T07:24:24.008Z,1016.3
2018-09-11T07:25:25.477Z,1016.4
2018-09-11T07:26:26.887Z,1016.4
2018-09-11T07:27:28.682Z,1016.4
2018-09-11T07:28:30.207Z,1016.5
2018-09-11T07:29:31.619Z,1016.4
2018-09-11T07:30:33.076Z,1016.4
2018-09-11T07:31:34.533Z,1016.4
2018-09-11T07:32:35.947Z,1016.5
2018-09-11T07:33:37.344Z,1016.4
2018-09-11T07:34:38.851Z,1016.4
2018-09-11T07:35:40.258Z,1016.4
2018-09-11T07:36:41.675Z,1016.4
2018-09-11T07:37:43.181Z,1016.3
2018-09-11T07:38:44.577Z,1016.4
2018-09-11T07:39:45.986Z,1016.4
2018-09-11T07:40:47.565Z,1016.4
2018-09-11T07:41:48.935Z,1016.4
2018-09-11T07:42:50.339Z,1016.4
2018-09-11T07:43:51.815Z,1016.4
2018-09-11T07:44:53.232Z,1016.3
2018-09-11T07:45:54.748Z,1016.4
2018-09-11T07:46:56.160Z,1016.3
2018-09-11T07:47:57.780Z,1016.3
2018-09-11T07:48:59.225Z,1016.3
2018-09-11T07:50:00.872Z,1016.4
2018-09-11T07:51:02.275Z,1016.4
2018-09-11T07:52:04.072Z,1016.3
2018-09-11T07:53:05.618Z,1016.3
2018-09-11T07:54:07.026Z,1016.3
2018-09-11T07:55:08.433Z,1016.3
2018-09-11T07:56:10.298Z,1016.2
2018-09-11T07:57:11.710Z,1016.2
2018-09-11T07:58:13.245Z,1016.2
2018-09-11T07:59:14.664Z,1016.3
2018-09-11T08:00:16.296Z,1016.3
2018-09-11T08:01:17.707Z,1016.2
2018-09-11T08:02:19.187Z,1016.2
2018-09-11T08:03:20.598Z,1016.3
2018-09-11T08:04:22.056Z,1016.3
2018-09-11T08:05:23.468Z,1016.2
2018-09-11T08:06:26.983Z,1016.2
2018-09-11T08:07:29.333Z,1016.2
2018-09-11T08:08:31.286Z,1016.2
2018-09-11T08:09:32.922Z,1016.3
2018-09-11T08:10:35.272Z,1016.2
2018-09-11T08:11:36.852Z,1016.2
2018-09-11T08:12:38.258Z,1016.3
2018-09-11T08:13:39.758Z,1016.3
2018-09-11T08:14:41.164Z,1016.4
2018-09-11T08:15:42.819Z,1016.3
2018-09-11T08:16:44.225Z,1016.4
2018-09-11T08:17:45.634Z,1016.3
2018-09-11T08:18:47.166Z,1016.4
2018-09-11T08:19:48.599Z,1016.5
2018-09-11T08:20:49.983Z,1016.5
2018-09-11T08:21:51.464Z,1016.4
2018-09-11T08:22:53.289Z,1016.3
2018-09-11T08:23:54.760Z,1016.5
2018-09-11T08:24:56.172Z,1016.5
2018-09-11T08:25:57.658Z,1016.5
2018-09-11T08:26:59.050Z,1016.5
2018-09-11T08:28:00.694Z,1016.5
2018-09-11T08:29:02.209Z,1016.5
2018-09-11T08:30:03.626Z,1016.3
2018-09-11T08:31:05.039Z,1016.4
2018-09-11T08:32:06.689Z,1016.5
2018-09-11T08:33:08.116Z,1016.4
2018-09-11T08:34:09.641Z,1016.4
2018-09-11T08:35:11.217Z,1016.4
2018-09-11T08:36:12.630Z,1016.4
2018-09-11T08:37:14.046Z,1016.4
2018-09-11T08:38:15.566Z,1016.4
2018-09-11T08:39:16.987Z,1016.4
2018-09-11T08:40:18.414Z,1016.4
2018-09-11T08:41:20.062Z,1016.4
2018-09-11T08:42:21.469Z,1016.4
2018-09-11T08:43:22.883Z,1016.4
2018-09-11T08:44:24.388Z,1016.3
2018-09-11T08:45:25.831Z,1016.4
2018-09-11T08:46:27.465Z,1016.4
2018-09-11T08:47:28.874Z,1016.3
2018-09-11T08:48:30.282Z,1016.4
2018-09-11T08:49:31.786Z,1016.4
2018-09-11T08:50:33.197Z,1016.3
2018-09-11T08:51:34.605Z,1016.3
2018-09-11T08:52:36.183Z,1016.3
2018-09-11T08:53:37.515Z,1016.3
2018-09-11T08:54:38.989Z,1016.3
2018-09-11T08:55:40.392Z,1016.2
2018-09-11T08:56:41.867Z,1016.3
2018-09-11T08:57:43.278Z,1016.3
2018-09-11T08:58:44.751Z,1016.2
2018-09-11T08:59:46.157Z,1016.3
2018-09-11T09:00:47.631Z,1016.2
2018-09-11T09:01:49.079Z,1016.2
2018-09-11T09:02:50.905Z,1016.3
2018-09-11T09:03:52.373Z,1016.2
2018-09-11T09:04:54.210Z,1016.1
2018-09-11T09:05:55.614Z,1016.3
2018-09-11T09:06:57.105Z,1016.3
2018-09-11T09:07:58.513Z,1016.3
2018-09-11T09:08:59.917Z,1016.3
2018-09-11T09:10:01.446Z,1016.3
2018-09-11T09:11:02.835Z,1016.3
2018-09-11T09:12:04.243Z,1016.2
2018-09-11T09:13:05.743Z,1016.3
2018-09-11T09:14:07.147Z,1016.3
2018-09-11T09:15:08.560Z,1016.3
2018-09-11T09:16:10.059Z,1016.4
2018-09-11T09:17:11.469Z,1016.3
2018-09-11T09:18:12.888Z,1016.4
2018-09-11T09:19:14.385Z,1016.3
2018-09-11T09:20:15.790Z,1016.3
2018-09-11T09:21:17.203Z,1016.3
2018-09-11T09:22:18.740Z,1016.2
2018-09-11T09:23:20.146Z,1016.3
2018-09-11T09:24:21.559Z,1016.2
2018-09-11T09:25:23.024Z,1016.3
2018-09-11T09:26:24.429Z,1016.3
2018-09-11T09:27:25.877Z,1016.2
2018-09-11T09:28:27.742Z,1016.3
2018-09-11T09:29:29.156Z,1016.3
2018-09-11T09:30:30.568Z,1016.2
2018-09-11T09:31:32.076Z,1016.2
2018-09-11T09:32:33.479Z,1016.2
2018-09-11T09:33:34.893Z,1016.2
2018-09-11T09:34:36.402Z,1016.3
2018-09-11T09:35:37.801Z,1016.2
2018-09-11T09:36:39.308Z,1016.2
2018-09-11T09:37:41.066Z,1016.2
2018-09-11T09:38:42.481Z,1016.2
2018-09-11T09:39:44.006Z,1016.2
2018-09-11T09:40:45.414Z,1016.2
2018-09-11T09:41:46.830Z,1016.3
2018-09-11T09:42:48.325Z,1016.3
2018-09-11T09:43:49.782Z,1016.3
2018-09-11T09:44:51.215Z,1016.4
2018-09-11T09:45:52.618Z,1016.4
2018-09-11T09:46:54.096Z,1016.5
2018-09-11T09:47:55.503Z,1016.3
2018-09-11T09:48:56.918Z,1016.3
2018-09-11T09:49:58.459Z,1016.2
2018-09-11T09:51:00.342Z,1016.2
2018-09-11T09:52:01.743Z,1016.2
2018-09-11T09:53:03.347Z,1016.1
2018-09-11T09:54:04.756Z,1016.1
2018-09-11T09:55:06.224Z,1016.2
2018-09-11T09:56:07.650Z,1016.1
2018-09-11T09:57:09.106Z,1016.2
2018-09-11T09:58:10.516Z,1016.2
2018-09-11T09:59:11.920Z,1016.1
2018-09-11T10:00:13.460Z,1016.2
2018-09-11T10:01:14.869Z,1016.2
2018-09-11T10:02:16.280Z,1016.1
2018-09-11T10:03:17.746Z,1016.2
2018-09-11T10:04:19.177Z,1016.3
2018-09-11T10:05:20.832Z,1016.2
2018-09-11T10:06:22.255Z,1016.3
2018-09-11T10:07:23.713Z,1016.4
2018-09-11T10:08:25.131Z,1016.4
2018-09-11T10:09:26.599Z,1016.3
2018-09-11T10:10:28.011Z,1016.4
2018-09-11T10:11:29.487Z,1016.3
2018-09-11T10:12:30.925Z,1016.3
2018-09-11T10:13:32.563Z,1016.3
2018-09-11T10:14:33.977Z,1016.3
2018-09-11T10:15:35.443Z,1016.2
2018-09-11T10:16:36.855Z,1016.3
2018-09-11T10:17:38.383Z,1016.2
2018-09-11T10:18:40.145Z,1016.2
2018-09-11T10:19:41.562Z,1016.2
2018-09-11T10:20:43.055Z,1016.3
2018-09-11T10:21:44.460Z,1016.3
2018-09-11T10:22:45.872Z,1016.3
2018-09-11T10:23:47.377Z,1016.4
2018-09-11T10:24:48.793Z,1016.3
2018-09-11T10:25:50.204Z,1016.2
2018-09-11T10:26:51.711Z,1016.2
2018-09-11T10:27:53.135Z,1016.3
2018-09-11T10:28:54.568Z,1016.2
2018-09-11T10:29:56.021Z,1016.2
2018-09-11T10:30:57.434Z,1016.2
2018-09-11T10:31:58.848Z,1016.2
2018-09-11T10:33:00.343Z,1016.3
2018-09-11T10:34:01.756Z,1016.2
2018-09-11T10:35:03.164Z,1016.1
2018-09-11T10:36:04.666Z,1016.1
2018-09-11T10:37:06.069Z,1016.2
2018-09-11T10:38:07.547Z,1016.2
2018-09-11T10:39:08.960Z,1016.2
2018-09-11T10:40:10.412Z,1016.2
2018-09-11T10:41:11.813Z,1016.1
2018-09-11T10:42:13.312Z,1016.2
2018-09-11T10:43:14.720Z,1016.1
2018-09-11T10:44:16.128Z,1016.0
2018-09-11T10:45:17.632Z,1016.2
2018-09-11T10:46:19.065Z,1016.0
2018-09-11T10:47:20.476Z,1016.0
2018-09-11T10:48:21.958Z,1016.0
2018-09-11T10:49:23.366Z,1016.0
2018-09-11T10:50:24.768Z,1016.1
2018-09-11T10:51:26.316Z,1016.1
2018-09-11T10:52:27.989Z,1016.0
2018-09-11T10:53:32.887Z,1016.0
2018-09-11T10:54:34.534Z,1016.1
2018-09-11T10:55:36.018Z,1016.0
2018-09-11T10:56:37.491Z,1016.1
2018-09-11T10:57:39.053Z,1016.0
2018-09-11T10:58:40.560Z,1015.9
2018-09-11T10:59:42.073Z,1016.0
2018-09-11T11:00:43.550Z,1016.0
2018-09-11T11:01:45.009Z,1016.0
2018-09-11T11:02:46.475Z,1016.0
2018-09-11T11:03:48.169Z,1016.0
2018-09-11T11:04:49.638Z,1015.9
2018-09-11T11:05:51.209Z,1016.0
2018-09-11T11:06:52.719Z,1016.0
2018-09-11T11:07:54.311Z,1015.9
2018-09-11T11:08:55.789Z,1016.0
2018-09-11T11:09:57.399Z,1015.9
2018-09-11T11:10:58.898Z,1016.0
2018-09-11T11:12:00.445Z,1015.9
2018-09-11T11:13:01.962Z,1015.9
2018-09-11T11:14:03.437Z,1015.8
2018-09-11T11:15:04.991Z,1015.9
2018-09-11T11:16:06.483Z,1015.9
2018-09-11T11:17:07.909Z,1015.8
2018-09-11T11:18:09.435Z,1015.9
2018-09-11T11:19:10.916Z,1015.9
2018-09-11T11:20:12.377Z,1015.9
2018-09-11T11:21:13.896Z,1016.0
2018-09-11T11:22:15.472Z,1016.0
2018-09-11T11:23:17.099Z,1015.9
2018-09-11T11:24:18.593Z,1015.9
2018-09-11T11:25:20.038Z,1015.9
2018-09-11T11:26:21.683Z,1015.9
2018-09-11T11:27:23.203Z,1016.0
2018-09-11T11:28:24.691Z,1015.9
2018-09-11T11:29:26.245Z,1016.0
2018-09-11T11:30:27.766Z,1015.9
2018-09-11T11:31:29.597Z,1015.9
2018-09-11T11:32:31.172Z,1016.0
2018-09-11T11:33:32.696Z,1015.8
2018-09-11T11:34:34.240Z,1015.9
2018-09-11T11:35:35.852Z,1015.9
2018-09-11T11:36:37.399Z,1015.9
2018-09-11T11:37:38.775Z,1015.9
2018-09-11T11:38:40.362Z,1015.9
2018-09-11T11:39:41.854Z,1015.9
2018-09-11T11:40:43.293Z,1015.8
2018-09-11T11:41:45.232Z,1015.9
2018-09-11T11:42:46.737Z,1015.8
2018-09-11T11:43:48.208Z,1015.8
2018-09-11T11:44:49.815Z,1015.8
2018-09-11T11:45:51.292Z,1015.8
2018-09-11T11:46:52.801Z,1015.8
2018-09-11T11:47:54.527Z,1015.7
2018-09-11T11:48:56.278Z,1015.7
2018-09-11T11:49:57.685Z,1015.7
2018-09-11T11:50:59.258Z,1015.7
2018-09-11T11:52:00.718Z,1015.8
2018-09-11T11:53:02.345Z,1015.7
2018-09-11T11:54:03.766Z,1015.7
2018-09-11T11:55:05.476Z,1015.8
2018-09-11T11:56:06.840Z,1015.8
2018-09-11T11:57:08.512Z,1015.8
2018-09-11T11:58:09.928Z,1015.8
2018-09-11T11:59:11.403Z,1015.8
2018-09-11T12:00:12.820Z,1015.8
2018-09-11T12:01:14.271Z,1015.8
2018-09-11T12:02:15.939Z,1015.7
2018-09-11T12:03:17.365Z,1015.7
2018-09-11T12:04:18.992Z,1015.7
2018-09-11T12:05:20.428Z,1015.8
2018-09-11T12:06:21.867Z,1015.8
2018-09-11T12:07:23.294Z,1015.8
2018-09-11T12:08:24.744Z,1015.8
2018-09-11T12:09:26.151Z,1015.9
2018-09-11T12:10:27.620Z,1015.9
2018-09-11T12:11:29.031Z,1015.8
2018-09-11T12:12:30.551Z,1015.8
2018-09-11T12:13:31.967Z,1015.8
2018-09-11T12:14:33.595Z,1015.8
2018-09-11T12:15:35.078Z,1015.8
2018-09-11T12:16:37.066Z,1015.8
2018-09-11T12:17:38.464Z,1015.7
2018-09-11T12:18:39.962Z,1015.7
2018-09-11T12:19:41.372Z,1015.8
2018-09-11T12:20:42.850Z,1015.7
2018-09-11T12:21:44.255Z,1015.7
2018-09-11T12:22:45.730Z,1015.7
2018-09-11T12:23:47.133Z,1015.7
2018-09-11T12:24:48.657Z,1015.7
2018-09-11T12:25:50.019Z,1015.7
2018-09-11T12:26:51.606Z,1015.7
2018-09-11T12:27:53.196Z,1015.7
2018-09-11T12:28:54.573Z,1015.7
2018-09-11T12:29:55.980Z,1015.7
2018-09-11T12:30:57.462Z,1015.6
2018-09-11T12:31:58.875Z,1015.5
2018-09-11T12:33:00.336Z,1015.6
2018-09-11T12:34:02.131Z,1015.5
2018-09-11T12:35:03.673Z,1015.5
2018-09-11T12:36:05.051Z,1015.6
2018-09-11T12:37:06.511Z,1015.5
2018-09-11T12:38:07.921Z,1015.5
2018-09-11T12:39:09.390Z,1015.5
2018-09-11T12:40:10.795Z,1015.5
2018-09-11T12:41:12.205Z,1015.5
2018-09-11T12:42:13.711Z,1015.5
2018-09-11T12:43:15.119Z,1015.5
2018-09-11T12:44:16.525Z,1015.5
2018-09-11T12:45:18.224Z,1015.5
2018-09-11T12:46:19.736Z,1015.6
2018-09-11T12:47:21.427Z,1015.6